Time;durP1;ratioP1;P1;durP2;ratioP2;P2;SDS_P1;SDS_P2;PMS_P1;PMS_P2;Temp;Humidity;BMP_temperature;BMP_pressure;BME280_temperature;BME280_humidity;BME280_pressure;Samples;Min_cycle;Max_cycle;Signal;HPM_P1;HPM_P2
2021/05/04 00:00:59;;;;;;;15.15;3.22;;;9.70;99.90;;;;;;4886058;29;20065;-90
2021/05/04 00:03:30;;;;;;;10.73;4.07;;;9.80;99.90;;;;;;4883227;29;20061;-91
2021/05/04 00:05:58;;;;;;;6.78;2.65;;;9.80;99.90;;;;;;4863298;29;20065;-91
2021/05/04 00:08:29;;;;;;;9.43;3.70;;;9.80;99.90;;;;;;4852149;29;20049;-91
2021/05/04 00:11:14;;;;;;;8.70;2.38;;;9.80;99.90;;;;;;4865654;29;20068;-91
2021/05/04 00:13:45;;;;;;;8.57;2.55;;;9.80;99.90;;;;;;4862891;29;20061;-92
2021/05/04 00:16:17;;;;;;;10.32;2.70;;;9.80;99.90;;;;;;4838456;29;20049;-91
2021/05/04 00:18:45;;;;;;;10.30;3.72;;;9.80;99.90;;;;;;4852189;29;20054;-92
2021/05/04 00:21:17;;;;;;;16.85;2.85;;;9.80;99.90;;;;;;4866276;29;20064;-91
2021/05/04 00:23:45;;;;;;;11.77;3.17;;;9.70;99.90;;;;;;4837547;29;20070;-92
2021/05/04 00:26:15;;;;;;;12.73;3.13;;;9.80;99.90;;;;;;4864915;29;20072;-91
2021/05/04 00:28:43;;;;;;;6.03;3.38;;;9.70;99.90;;;;;;4839817;29;20064;-91
2021/05/04 00:31:11;;;;;;;10.27;3.80;;;9.80;99.90;;;;;;4850298;29;20054;-91
2021/05/04 00:33:39;;;;;;;9.35;3.88;;;10.50;99.90;;;;;;4852639;29;20054;-91
2021/05/04 00:36:16;;;;;;;16.25;4.47;;;9.80;99.90;;;;;;4870515;29;20064;-91
2021/05/04 00:38:44;;;;;;;7.60;3.78;;;9.80;99.90;;;;;;4858168;29;20045;-90
2021/05/04 00:41:12;;;;;;;13.32;3.92;;;9.80;99.90;;;;;;4840216;29;20058;-91
2021/05/04 00:43:41;;;;;;;10.82;2.85;;;9.90;99.90;;;;;;4866315;29;20046;-91
2021/05/04 00:46:11;;;;;;;7.25;3.45;;;9.80;99.90;;;;;;4866281;29;20046;-93
2021/05/04 00:48:39;;;;;;;7.82;2.67;;;9.80;99.90;;;;;;4869651;29;20065;-92
2021/05/04 00:51:08;;;;;;;9.07;4.30;;;9.80;99.90;;;;;;4870997;29;20057;-90
2021/05/04 00:53:44;;;;;;;13.88;3.80;;;10.70;99.90;;;;;;4867885;29;20557;-90
2021/05/04 00:56:13;;;;;;;11.80;2.70;;;10.00;99.90;;;;;;4852850;29;20061;-91
2021/05/04 00:58:43;;;;;;;9.38;2.72;;;9.80;99.90;;;;;;4852610;29;20775;-92
2021/05/04 01:01:10;;;;;;;11.60;3.85;;;9.80;99.90;;;;;;4850737;29;20061;-90
2021/05/04 01:03:39;;;;;;;13.13;2.78;;;9.80;99.90;;;;;;4839999;29;20057;-91
2021/05/04 01:06:09;;;;;;;26.13;6.18;;;9.90;99.90;;;;;;4839868;29;20057;-89
2021/05/04 01:08:38;;;;;;;14.90;4.85;;;9.80;99.90;;;;;;4844168;29;20061;-91
2021/05/04 01:11:08;;;;;;;;;;;9.90;99.90;;;;;;4873971;29;20062;-91
2021/05/04 01:13:38;;;;;;;11.23;2.90;;;9.80;99.90;;;;;;4865287;29;19924;-89
2021/05/04 01:16:11;;;;;;;11.70;3.05;;;9.80;99.90;;;;;;4835501;29;20054;-91
2021/05/04 01:18:42;;;;;;;24.33;4.95;;;9.80;99.90;;;;;;4837632;29;20057;-92
2021/05/04 01:21:12;;;;;;;13.48;4.03;;;9.90;99.90;;;;;;4866061;29;20057;-90
2021/05/04 01:23:41;;;;;;;15.38;2.88;;;9.90;99.90;;;;;;4843685;29;20069;-91
2021/05/04 01:26:10;;;;;;;10.75;3.00;;;9.80;99.90;;;;;;4866827;29;20061;-90
2021/05/04 01:28:37;;;;;;;15.10;3.70;;;10.40;99.90;;;;;;4858011;29;20049;-91
2021/05/04 01:31:06;;;;;;;14.60;3.15;;;9.90;99.90;;;;;;4867663;29;20056;-92
2021/05/04 01:33:38;;;;;;;15.90;3.53;;;9.70;99.90;;;;;;4858034;29;20073;-89
2021/05/04 01:36:07;;;;;;;23.52;6.50;;;9.80;99.90;;;;;;4864822;29;20060;-90
2021/05/04 01:38:35;;;;;;;17.75;3.90;;;9.90;99.90;;;;;;4838290;29;20065;-92
2021/05/04 01:41:07;;;;;;;27.98;5.97;;;9.80;99.90;;;;;;4863352;29;20068;-91
2021/05/04 01:43:36;;;;;;;12.55;4.15;;;10.50;99.90;;;;;;4874265;29;20068;-91
2021/05/04 01:46:03;;;;;;;10.80;4.28;;;9.80;99.90;;;;;;4825130;29;20049;-90
2021/05/04 01:48:31;;;;;;;18.67;4.72;;;9.70;99.90;;;;;;4871153;29;20054;-90
2021/05/04 01:50:59;;;;;;;11.13;4.03;;;9.80;99.90;;;;;;4853484;29;20050;-90
2021/05/04 01:53:27;;;;;;;12.70;3.38;;;9.70;99.90;;;;;;4868156;29;20067;-92
2021/05/04 01:55:55;;;;;;;12.07;3.17;;;9.70;99.90;;;;;;4865513;29;20046;-89
2021/05/04 01:58:22;;;;;;;13.98;3.33;;;10.40;99.90;;;;;;4838945;29;20054;-90
2021/05/04 02:00:50;;;;;;;18.58;4.28;;;9.70;99.90;;;;;;4839594;29;20058;-90
2021/05/04 02:03:20;;;;;;;10.70;3.05;;;9.70;99.90;;;;;;4845785;29;20057;-92
2021/05/04 02:05:48;;;;;;;25.58;8.52;;;9.70;99.90;;;;;;4849789;29;20058;-90
2021/05/04 02:08:15;;;;;;;24.48;3.65;;;10.10;99.90;;;;;;4854453;29;20140;-90
2021/05/04 02:10:43;;;;;;;10.25;2.63;;;9.90;99.90;;;;;;4856381;29;20086;-91
2021/05/04 02:13:10;;;;;;;17.90;3.95;;;9.70;99.90;;;;;;4835951;29;20057;-91
2021/05/04 02:15:37;;;;;;;9.25;3.78;;;9.70;99.90;;;;;;4836943;29;20060;-91
2021/05/04 02:18:05;;;;;;;12.85;3.45;;;9.80;99.90;;;;;;4867251;29;20057;-89
2021/05/04 02:20:34;;;;;;;12.70;3.38;;;9.80;99.90;;;;;;4869449;29;20053;-89
2021/05/04 02:23:01;;;;;;;16.10;3.63;;;9.80;99.90;;;;;;4868345;29;20054;-88
2021/05/04 02:25:29;;;;;;;16.63;4.18;;;9.90;99.90;;;;;;4841827;29;20425;-90
2021/05/04 02:27:57;;;;;;;15.95;3.95;;;9.80;99.90;;;;;;4854828;29;20425;-90
2021/05/04 02:30:26;;;;;;;11.40;3.33;;;9.80;99.90;;;;;;4850792;29;20069;-90
2021/05/04 02:32:54;;;;;;;16.60;3.63;;;9.90;99.90;;;;;;4863857;29;20065;-90
2021/05/04 02:35:23;;;;;;;8.35;2.42;;;9.80;99.90;;;;;;4846503;29;20144;-88
2021/05/04 02:37:50;;;;;;;16.02;3.47;;;9.80;99.90;;;;;;4858146;29;20068;-90
2021/05/04 02:40:19;;;;;;;13.00;3.92;;;9.80;99.90;;;;;;4852680;29;20053;-89
2021/05/04 02:42:48;;;;;;;15.18;2.63;;;9.80;99.90;;;;;;4859499;29;20060;-89
2021/05/04 02:45:17;;;;;;;18.20;4.47;;;9.80;99.90;;;;;;4865719;29;20057;-90
2021/05/04 02:47:44;;;;;;;15.82;4.25;;;9.80;99.90;;;;;;4866370;29;20064;-89
2021/05/04 02:50:13;;;;;;;11.50;3.58;;;9.70;99.90;;;;;;4839230;29;20053;-88
2021/05/04 02:52:41;;;;;;;8.52;2.58;;;9.70;99.90;;;;;;4840757;29;20058;-90
2021/05/04 02:55:11;;;;;;;12.00;4.32;;;10.10;99.90;;;;;;4840128;29;20058;-89
2021/05/04 02:57:38;;;;;;;11.80;3.38;;;9.80;99.90;;;;;;4864710;29;20058;-89
2021/05/04 03:00:07;;;;;;;14.75;4.78;;;9.80;99.90;;;;;;4860145;29;20057;-90
2021/05/04 03:02:35;;;;;;;7.25;2.92;;;9.80;99.90;;;;;;4846168;29;20046;-90
2021/05/04 03:05:05;;;;;;;11.55;3.20;;;9.70;99.90;;;;;;4815933;29;20054;-91
2021/05/04 03:07:33;;;;;;;8.90;3.50;;;9.70;99.90;;;;;;4831884;29;20054;-91
2021/05/04 03:10:00;;;;;;;9.75;2.95;;;9.70;99.90;;;;;;4830403;29;20141;-90
2021/05/04 03:12:28;;;;;;;10.20;3.67;;;9.70;99.90;;;;;;4875106;29;20065;-90
2021/05/04 03:14:55;;;;;;;15.70;3.00;;;9.70;99.90;;;;;;4879815;29;20061;-90
2021/05/04 03:17:22;;;;;;;11.65;4.20;;;9.70;99.90;;;;;;4864491;29;20057;-91
2021/05/04 03:19:53;;;;;;;9.60;4.37;;;9.80;99.90;;;;;;4850145;29;20054;-90
2021/05/04 03:22:21;;;;;;;12.55;3.40;;;10.30;99.90;;;;;;4853430;29;20056;-89
2021/05/04 03:24:48;;;;;;;14.77;3.50;;;9.70;99.90;;;;;;4882892;29;20056;-89
2021/05/04 03:27:17;;;;;;;13.13;2.58;;;10.00;99.90;;;;;;4867774;29;20694;-90
2021/05/04 03:29:46;;;;;;;14.68;4.28;;;9.70;99.90;;;;;;4855478;29;20068;-91
2021/05/04 03:32:13;;;;;;;9.85;2.70;;;9.60;99.90;;;;;;4869422;29;20053;-91
2021/05/04 03:34:41;;;;;;;11.93;2.35;;;10.40;99.90;;;;;;4838692;29;20061;-91
2021/05/04 03:37:12;;;;;;;11.98;2.83;;;9.60;99.90;;;;;;4859272;29;20049;-92
2021/05/04 03:39:40;;;;;;;8.75;3.35;;;9.60;99.90;;;;;;4850894;29;20049;-90
2021/05/04 03:42:08;;;;;;;10.43;3.78;;;9.60;99.90;;;;;;4866527;29;20057;-92
2021/05/04 03:44:36;;;;;;;18.30;6.15;;;9.50;99.90;;;;;;4864818;29;20060;-92
2021/05/04 03:47:04;;;;;;;16.17;4.78;;;9.50;99.90;;;;;;4856514;29;20057;-92
2021/05/04 03:49:31;;;;;;;11.43;3.55;;;9.40;99.90;;;;;;4878649;29;20076;-90
2021/05/04 03:51:59;;;;;;;12.63;3.65;;;9.40;99.90;;;;;;4869892;29;20057;-92
2021/05/04 03:54:27;;;;;;;15.32;3.20;;;9.30;99.90;;;;;;4869792;29;20532;-91
2021/05/04 03:56:57;;;;;;;15.00;3.10;;;9.30;99.90;;;;;;4849986;29;20046;-92
2021/05/04 03:59:28;;;;;;;15.35;6.00;;;9.30;99.90;;;;;;4863753;29;20062;-90
2021/05/04 04:01:55;;;;;;;8.95;3.58;;;9.30;99.90;;;;;;4882215;29;20053;-91
2021/05/04 04:04:23;;;;;;;15.57;4.57;;;9.30;99.90;;;;;;4855391;29;20044;-91
2021/05/04 04:06:51;;;;;;;16.83;3.38;;;9.30;99.90;;;;;;4864789;29;20053;-90
2021/05/04 04:09:21;;;;;;;11.88;3.65;;;9.30;99.90;;;;;;4874205;29;20064;-91
2021/05/04 04:11:48;;;;;;;8.75;2.60;;;9.70;99.90;;;;;;4886384;29;20061;-91
2021/05/04 04:14:16;;;;;;;11.55;3.20;;;9.30;99.90;;;;;;4859426;29;20057;-89
2021/05/04 04:16:45;;;;;;;8.38;3.42;;;9.30;99.90;;;;;;4887843;29;20048;-91
2021/05/04 04:19:15;;;;;;;12.68;3.30;;;9.30;99.90;;;;;;4846966;29;20053;-92
2021/05/04 04:21:49;;;;;;;15.60;3.65;;;9.80;99.90;;;;;;4858320;29;20050;-90
2021/05/04 04:24:22;;;;;;;10.68;3.08;;;9.40;99.90;;;;;;4844170;29;20057;-92
2021/05/04 04:26:53;;;;;;;11.55;2.67;;;9.30;99.90;;;;;;4878618;29;20063;-90
2021/05/04 04:29:26;;;;;;;7.25;2.38;;;9.40;99.90;;;;;;4878163;29;20301;-90
2021/05/04 04:31:56;;;;;;;17.08;2.72;;;9.50;99.90;;;;;;4853369;29;20055;-89
2021/05/04 04:34:28;;;;;;;15.50;3.58;;;9.40;99.90;;;;;;4880841;29;20053;-90
2021/05/04 04:36:56;;;;;;;5.93;2.92;;;9.90;99.90;;;;;;4833946;29;20041;-90
2021/05/04 04:39:31;;;;;;;14.38;4.18;;;9.40;99.90;;;;;;4861048;29;20059;-92
2021/05/04 04:42:04;;;;;;;9.45;2.63;;;9.60;99.90;;;;;;4877246;29;20045;-91
2021/05/04 04:44:34;;;;;;;7.28;2.13;;;9.40;99.90;;;;;;4850618;29;20060;-93
2021/05/04 04:47:01;;;;;;;14.68;3.17;;;9.90;99.90;;;;;;4849304;29;20119;-92
2021/05/04 04:49:37;;;;;;;13.75;3.45;;;9.70;99.90;;;;;;4888378;29;20053;-90
2021/05/04 04:52:07;;;;;;;10.98;3.28;;;9.40;99.90;;;;;;4864125;29;20061;-92
2021/05/04 04:54:40;;;;;;;10.80;2.75;;;9.40;99.90;;;;;;4880209;29;20056;-91
2021/05/04 04:57:09;;;;;;;8.57;2.10;;;9.40;99.90;;;;;;4852812;29;20053;-92
2021/05/04 04:59:41;;;;;;;7.43;2.37;;;10.30;99.90;;;;;;4878267;29;20045;-91
2021/05/04 05:02:11;;;;;;;16.08;3.50;;;9.90;99.90;;;;;;4880917;29;20062;-91
2021/05/04 05:04:39;;;;;;;16.15;3.13;;;9.40;99.90;;;;;;4882466;29;20067;-89
2021/05/04 05:07:13;;;;;;;6.78;2.47;;;9.50;99.90;;;;;;4883315;29;20039;-91
2021/05/04 05:10:00;;;;;;;5.82;1.85;;;9.50;99.90;;;;;;4885488;29;20048;-89
2021/05/04 05:12:29;;;;;;;4.13;2.38;;;9.50;99.90;;;;;;4894392;29;20057;-90
2021/05/04 05:15:01;;;;;;;9.35;2.67;;;9.50;99.90;;;;;;4872842;29;20056;-89
2021/05/04 05:17:33;;;;;;;17.17;5.10;;;9.40;99.90;;;;;;4865925;29;20057;-91
2021/05/04 05:20:10;;;;;;;9.40;2.50;;;9.40;99.90;;;;;;4864424;29;20143;-90
2021/05/04 05:22:44;;;;;;;8.52;2.65;;;9.30;99.90;;;;;;4875549;29;20061;-89
2021/05/04 05:25:17;;;;;;;8.25;3.83;;;9.20;99.90;;;;;;4859697;29;20050;-91
2021/05/04 05:27:56;;;;;;;7.90;3.20;;;9.10;99.90;;;;;;4871211;29;20053;-90
2021/05/04 05:30:31;;;;;;;11.40;2.83;;;9.00;99.90;;;;;;4876039;24;20061;-90
2021/05/04 05:33:04;;;;;;;11.43;4.93;;;9.40;99.90;;;;;;4893341;29;20068;-92
2021/05/04 05:35:34;;;;;;;9.63;2.40;;;7.60;99.90;;;;;;4885758;29;20084;-92
2021/05/04 05:38:27;;;;;;;8.18;2.50;;;8.80;99.90;;;;;;4892620;29;20061;-92
2021/05/04 05:41:11;;;;;;;10.50;4.00;;;8.80;99.90;;;;;;4863687;29;20052;-90
2021/05/04 05:43:40;;;;;;;11.05;3.95;;;8.80;99.90;;;;;;4893143;29;20068;-92
2021/05/04 05:46:15;;;;;;;4.93;2.58;;;8.80;99.90;;;;;;4847856;29;20053;-92
2021/05/04 05:48:47;;;;;;;3.78;2.38;;;8.80;99.90;;;;;;4889185;29;20061;-90
2021/05/04 05:51:49;;;;;;;4.97;2.38;;;8.80;99.90;;;;;;4879389;29;20060;-91
2021/05/04 05:54:21;;;;;;;4.40;1.90;;;8.90;99.90;;;;;;4847041;29;20068;-91
2021/05/04 05:56:58;;;;;;;5.90;2.53;;;8.90;99.90;;;;;;4874762;29;20052;-91
2021/05/04 05:59:32;;;;;;;5.43;2.10;;;8.90;99.90;;;;;;4895877;29;20045;-91
2021/05/04 06:02:11;;;;;;;7.18;2.22;;;8.90;99.90;;;;;;4881684;29;20440;-91
2021/05/04 06:04:40;;;;;;;1.77;1.65;;;9.00;99.90;;;;;;4901126;29;20059;-91
2021/05/04 06:07:10;;;;;;;3.47;1.70;;;8.90;99.90;;;;;;4894254;29;20059;-90
2021/05/04 06:09:43;;;;;;;10.52;2.15;;;9.00;99.90;;;;;;4882256;29;20061;-90
2021/05/04 06:12:59;;;;;;;3.10;1.75;;;9.00;99.90;;;;;;4871762;29;20049;-91
2021/05/04 06:15:33;;;;;;;3.88;1.27;;;9.10;99.90;;;;;;4874174;29;20058;-91
2021/05/04 06:18:46;;;;;;;1.60;1.50;;;9.10;99.90;;;;;;4842087;29;20059;-91
2021/05/04 06:21:21;;;;;;;1.55;1.45;;;9.20;99.90;;;;;;4864644;29;20067;-92
2021/05/04 06:23:54;;;;;;;2.22;1.10;;;8.80;99.90;;;;;;4860615;29;20061;-91
2021/05/04 06:26:34;;;;;;;6.07;1.92;;;9.50;99.90;;;;;;4895574;29;20054;-91
2021/05/04 06:29:05;;;;;;;5.63;1.30;;;9.30;99.90;;;;;;4872081;29;20069;-92
2021/05/04 06:31:40;;;;;;;8.18;1.80;;;9.20;99.90;;;;;;4869863;29;20057;-91
2021/05/04 06:34:12;;;;;;;1.45;1.30;;;9.10;99.90;;;;;;4874512;29;20049;-90
2021/05/04 06:36:58;;;;;;;3.88;1.50;;;9.10;99.90;;;;;;4872036;29;20058;-91
2021/05/04 06:39:36;;;;;;;15.40;2.42;;;9.00;99.90;;;;;;4886138;29;20367;-93
2021/05/04 06:42:10;;;;;;;3.78;1.40;;;9.00;99.90;;;;;;4864485;29;20061;-88
2021/05/04 06:44:47;;;;;;;2.17;1.67;;;9.00;99.90;;;;;;4847071;29;20054;-91
2021/05/04 06:47:15;;;;;;;1.40;1.30;;;9.00;99.90;;;;;;4852808;29;20045;-87
2021/05/04 06:49:48;;;;;;;4.93;1.75;;;9.70;99.90;;;;;;4887608;29;20050;-89
2021/05/04 06:52:17;;;;;;;3.50;2.03;;;9.10;99.90;;;;;;4871850;29;20073;-87
2021/05/04 06:54:45;;;;;;;8.18;1.80;;;9.20;99.90;;;;;;4871429;29;20173;-91
2021/05/04 06:57:18;;;;;;;3.30;1.38;;;9.30;99.90;;;;;;4886517;29;20741;-90
2021/05/04 06:59:54;;;;;;;1.45;1.30;;;9.30;99.90;;;;;;4870131;29;20053;-87
2021/05/04 07:02:24;;;;;;;1.80;1.70;;;9.30;99.90;;;;;;4870126;29;20058;-88
2021/05/04 07:04:57;;;;;;;7.10;1.40;;;9.30;99.90;;;;;;4861285;29;20057;-90
2021/05/04 07:07:28;;;;;;;9.55;3.25;;;9.40;99.90;;;;;;4883480;29;20057;-89
2021/05/04 07:09:57;;;;;;;5.32;1.35;;;9.40;99.90;;;;;;4862378;29;20082;-93
2021/05/04 07:12:28;;;;;;;2.90;1.40;;;9.40;99.90;;;;;;4872149;29;20049;-89
2021/05/04 07:15:03;;;;;;;2.38;1.20;;;9.40;99.90;;;;;;4873684;29;20049;-92
2021/05/04 07:17:37;;;;;;;2.50;1.92;;;9.40;99.90;;;;;;4887111;29;20061;-91
2021/05/04 07:20:43;;;;;;;4.72;1.33;;;9.40;99.90;;;;;;4856443;29;20060;-90
2021/05/04 07:23:13;;;;;;;5.35;1.30;;;9.40;99.90;;;;;;4876534;29;20054;-87
2021/05/04 07:25:44;;;;;;;3.70;1.50;;;9.40;99.90;;;;;;4883123;29;20057;-91
2021/05/04 07:28:17;;;;;;;2.58;1.25;;;9.40;99.90;;;;;;4860831;29;20057;-88
2021/05/04 07:30:46;;;;;;;1.88;1.35;;;9.80;99.90;;;;;;4868495;29;20079;-89
2021/05/04 07:33:16;;;;;;;1.90;1.10;;;9.90;99.90;;;;;;4878945;29;20053;-89
2021/05/04 07:35:49;;;;;;;4.63;1.42;;;9.50;99.90;;;;;;4880050;29;20061;-89
2021/05/04 07:38:20;;;;;;;2.95;1.40;;;9.60;99.90;;;;;;4879322;29;20046;-89
2021/05/04 07:40:48;;;;;;;5.65;1.45;;;9.60;99.90;;;;;;4888223;29;20061;-89
2021/05/04 07:43:16;;;;;;;2.28;1.48;;;9.60;99.90;;;;;;4877654;29;20052;-91
2021/05/04 07:45:44;;;;;;;5.75;1.70;;;9.70;99.90;;;;;;4859302;29;20042;-87
2021/05/04 07:48:13;;;;;;;4.80;2.63;;;9.70;99.90;;;;;;4886318;29;20076;-90
2021/05/04 07:50:41;;;;;;;2.17;1.33;;;9.70;99.90;;;;;;4860068;29;20049;-88
2021/05/04 07:53:13;;;;;;;5.55;1.67;;;9.70;99.90;;;;;;4873616;29;20065;-90
2021/05/04 07:55:42;;;;;;;6.25;1.95;;;9.80;99.90;;;;;;4857629;29;20054;-91
2021/05/04 07:58:10;;;;;;;5.47;1.80;;;9.90;99.90;;;;;;4872157;29;20041;-90
2021/05/04 08:00:38;;;;;;;8.25;2.30;;;10.00;99.90;;;;;;4878037;29;20076;-87
2021/05/04 08:03:10;;;;;;;1.77;1.45;;;10.00;99.90;;;;;;4866679;29;20070;-88
2021/05/04 08:05:38;;;;;;;5.47;2.42;;;10.10;99.90;;;;;;4872655;29;20205;-91
2021/05/04 08:08:13;;;;;;;4.22;1.40;;;10.10;99.90;;;;;;4856981;29;20055;-87
2021/05/04 08:10:48;;;;;;;3.35;1.50;;;10.10;99.90;;;;;;4883265;23;20059;-90
2021/05/04 08:13:19;;;;;;;2.78;2.47;;;10.20;99.90;;;;;;4886522;29;20045;-89
2021/05/04 08:15:51;;;;;;;4.15;1.40;;;10.30;99.90;;;;;;4891796;29;20049;-88
2021/05/04 08:18:19;;;;;;;5.97;1.65;;;10.30;99.90;;;;;;4888184;29;20064;-87
2021/05/04 08:20:51;;;;;;;7.35;1.73;;;10.40;99.90;;;;;;4908598;29;20052;-87
2021/05/04 08:23:22;;;;;;;3.17;1.58;;;10.50;99.90;;;;;;4893381;29;20055;-90
2021/05/04 08:25:49;;;;;;;1.70;1.17;;;10.50;99.90;;;;;;4894804;29;20049;-88
2021/05/04 08:28:17;;;;;;;3.15;1.92;;;10.60;99.90;;;;;;4890628;29;20062;-89
2021/05/04 08:30:50;;;;;;;3.58;1.75;;;10.70;99.90;;;;;;4906988;29;20057;-89
2021/05/04 08:33:18;;;;;;;7.35;2.90;;;10.70;99.90;;;;;;4876340;29;20061;-89
2021/05/04 08:35:46;;;;;;;4.90;1.80;;;10.80;99.90;;;;;;4877100;29;20067;-87
2021/05/04 08:38:14;;;;;;;3.40;1.58;;;10.80;99.90;;;;;;4876722;29;20057;-92
2021/05/04 08:40:44;;;;;;;1.20;1.05;;;10.80;99.90;;;;;;4905922;29;20057;-90
2021/05/04 08:43:13;;;;;;;3.47;1.40;;;10.90;99.90;;;;;;4884869;29;20060;-92
2021/05/04 08:45:43;;;;;;;3.35;1.50;;;11.00;99.90;;;;;;4900483;29;20063;-87
2021/05/04 08:48:14;;;;;;;;;;;10.90;99.90;;;;;;4908222;29;20068;-88
2021/05/04 08:50:44;;;;;;;4.10;2.03;;;11.00;99.90;;;;;;4902849;29;20226;-90
2021/05/04 08:53:21;;;;;;;3.33;1.42;;;11.10;99.90;;;;;;4893844;29;20053;-91
2021/05/04 08:55:53;;;;;;;3.72;2.20;;;11.20;99.90;;;;;;4871265;29;20048;-87
2021/05/04 08:58:21;;;;;;;4.65;1.63;;;11.30;99.90;;;;;;4876054;29;20049;-87
2021/05/04 09:01:10;;;;;;;1.33;1.23;;;11.40;99.90;;;;;;4899727;29;20056;-88
2021/05/04 09:06:25;;;;;;;3.78;1.42;;;11.40;99.90;;;;;;4885200;29;20052;-93
2021/05/04 09:09:23;;;;;;;2.03;1.40;;;11.50;99.90;;;;;;4887346;29;20063;-90
2021/05/04 09:12:15;;;;;;;1.70;1.08;;;11.50;99.90;;;;;;4878379;29;20056;-91
2021/05/04 09:14:54;;;;;;;2.05;1.35;;;11.80;99.90;;;;;;4895817;29;20044;-89
2021/05/04 09:17:47;;;;;;;7.45;1.60;;;11.50;99.90;;;;;;4876192;29;20068;-88
2021/05/04 09:20:30;;;;;;;8.25;1.42;;;11.50;99.90;;;;;;4899521;29;20045;-86
2021/05/04 09:23:09;;;;;;;2.13;1.27;;;11.50;99.90;;;;;;4907394;29;20059;-88
2021/05/04 09:25:41;;;;;;;6.03;1.42;;;11.60;99.90;;;;;;4889421;29;20060;-88
2021/05/04 09:28:13;;;;;;;2.30;1.25;;;11.50;99.90;;;;;;4894861;29;20063;-89
2021/05/04 09:30:57;;;;;;;4.25;1.60;;;11.50;99.90;;;;;;4908011;29;20068;-88
2021/05/04 09:33:38;;;;;;;4.85;1.65;;;11.40;99.90;;;;;;4883484;29;20052;-89
2021/05/04 09:36:06;;;;;;;2.47;1.20;;;11.40;99.90;;;;;;4893538;29;20057;-91
2021/05/04 09:38:44;;;;;;;1.88;1.42;;;11.40;99.90;;;;;;4908587;29;20547;-90
2021/05/04 09:41:28;;;;;;;2.03;1.45;;;11.40;99.90;;;;;;4871028;29;20053;-88
2021/05/04 09:43:58;;;;;;;2.22;1.48;;;11.50;99.90;;;;;;4885024;29;20059;-91
2021/05/04 09:46:46;;;;;;;3.08;1.23;;;11.50;99.90;;;;;;4905275;29;20056;-88
2021/05/04 09:49:33;;;;;;;1.58;1.40;;;11.50;99.90;;;;;;4886580;29;20072;-88
2021/05/04 09:52:41;;;;;;;3.15;1.75;;;11.60;99.90;;;;;;4907309;29;20078;-87
2021/05/04 09:55:17;;;;;;;4.30;1.75;;;11.70;99.90;;;;;;4876719;29;20049;-87
2021/05/04 09:57:52;;;;;;;2.50;1.77;;;11.60;99.90;;;;;;4890866;29;20067;-88
2021/05/04 10:00:26;;;;;;;3.50;1.92;;;11.60;99.90;;;;;;4863941;29;20048;-88
2021/05/04 10:03:04;;;;;;;1.33;1.10;;;11.60;99.90;;;;;;4891514;29;20068;-91
2021/05/04 10:05:33;;;;;;;5.05;0.90;;;11.50;99.90;;;;;;4879044;29;20057;-89
2021/05/04 10:08:07;;;;;;;4.20;1.27;;;11.50;99.90;;;;;;4880117;29;20063;-86
2021/05/04 10:10:36;;;;;;;5.18;1.52;;;11.50;99.90;;;;;;4894851;29;20057;-89
2021/05/04 10:13:19;;;;;;;8.90;1.70;;;11.60;99.90;;;;;;4893706;29;20074;-92
2021/05/04 10:15:48;;;;;;;2.22;1.27;;;11.80;99.90;;;;;;4896971;29;20401;-88
2021/05/04 10:18:18;;;;;;;2.17;1.10;;;11.60;99.90;;;;;;4893877;29;20056;-90
2021/05/04 10:20:47;;;;;;;3.40;1.42;;;11.80;99.90;;;;;;4903235;29;20061;-87
2021/05/04 10:23:16;;;;;;;2.70;1.50;;;11.70;99.90;;;;;;4889024;29;20386;-89
2021/05/04 10:25:50;;;;;;;4.93;1.55;;;11.80;99.90;;;;;;4879518;29;20064;-88
2021/05/04 10:28:21;;;;;;;6.03;2.05;;;12.10;99.90;;;;;;4904687;29;20061;-90
2021/05/04 10:30:49;;;;;;;1.83;1.25;;;12.20;99.90;;;;;;4894897;29;20057;-88
2021/05/04 10:33:41;;;;;;;2.92;1.45;;;12.30;99.90;;;;;;4887888;29;20064;-88
2021/05/04 10:36:37;;;;;;;1.33;1.00;;;12.50;99.90;;;;;;4892614;29;20045;-88
2021/05/04 10:39:07;;;;;;;3.00;1.25;;;12.60;99.90;;;;;;4888964;29;20064;-88
2021/05/04 10:41:58;;;;;;;3.60;1.50;;;12.60;99.90;;;;;;4892190;29;20053;-87
2021/05/04 10:44:27;;;;;;;4.38;1.65;;;12.50;99.70;;;;;;4896213;29;20055;-88
2021/05/04 10:46:59;;;;;;;3.00;1.10;;;12.40;99.60;;;;;;4897702;29;20067;-89
2021/05/04 10:50:04;;;;;;;8.02;1.48;;;12.50;99.00;;;;;;4905126;29;20053;-88
2021/05/04 10:52:52;;;;;;;3.47;1.30;;;12.40;98.70;;;;;;4891981;29;20052;-90
2021/05/04 10:55:42;;;;;;;6.53;2.05;;;12.50;98.90;;;;;;4905267;29;20059;-88
2021/05/04 10:58:13;;;;;;;19.17;4.07;;;12.70;98.30;;;;;;4888307;29;20048;-87
2021/05/04 11:01:01;;;;;;;12.50;2.45;;;12.70;97.90;;;;;;4878496;29;20065;-87
2021/05/04 11:03:34;;;;;;;4.72;1.40;;;12.70;97.30;;;;;;4892253;29;20055;-87
2021/05/04 11:06:32;;;;;;;4.40;1.45;;;12.70;97.40;;;;;;4896112;29;20057;-88
2021/05/04 11:09:10;;;;;;;2.65;1.30;;;12.70;97.50;;;;;;4888636;29;20587;-88
2021/05/04 11:11:45;;;;;;;3.97;1.40;;;12.80;97.90;;;;;;4889494;29;20053;-89
2021/05/04 11:14:24;;;;;;;24.42;4.85;;;12.90;97.90;;;;;;4887670;29;20056;-86
2021/05/04 11:16:56;;;;;;;17.70;2.35;;;13.30;98.30;;;;;;4884511;29;20064;-89
2021/05/04 11:19:31;;;;;;;4.40;1.25;;;13.10;97.20;;;;;;4890098;29;20049;-88
2021/05/04 11:21:59;;;;;;;2.38;1.15;;;13.20;97.20;;;;;;4883517;29;20052;-85
2021/05/04 11:24:33;;;;;;;1.35;1.05;;;13.20;96.20;;;;;;4880494;29;20049;-87
2021/05/04 11:27:02;;;;;;;1.90;1.27;;;13.20;96.20;;;;;;4891201;29;20057;-88
2021/05/04 11:29:31;;;;;;;2.60;1.20;;;13.20;96.30;;;;;;4877476;29;20045;-86
2021/05/04 11:32:12;;;;;;;4.10;1.20;;;13.20;96.20;;;;;;4871069;29;20494;-89
2021/05/04 11:34:54;;;;;;;3.17;1.23;;;13.10;96.00;;;;;;4860020;29;20052;-87
2021/05/04 11:37:24;;;;;;;12.05;1.88;;;13.10;95.60;;;;;;4880446;29;20058;-88
2021/05/04 11:39:53;;;;;;;4.57;1.30;;;13.20;95.10;;;;;;4878519;29;20422;-86
2021/05/04 11:42:31;;;;;;;20.80;3.30;;;13.10;95.50;;;;;;4886623;29;20068;-91
2021/05/04 11:45:21;;;;;;;3.13;1.15;;;13.20;95.60;;;;;;4869556;29;20053;-87
2021/05/04 11:47:52;;;;;;;23.00;5.10;;;13.30;94.30;;;;;;4891867;29;20049;-87
2021/05/04 11:50:25;;;;;;;37.15;4.75;;;13.30;94.00;;;;;;4889606;29;20057;-87
2021/05/04 11:53:01;;;;;;;4.22;1.10;;;13.30;94.20;;;;;;4894898;29;20064;-88
2021/05/04 11:55:33;;;;;;;11.77;1.80;;;13.30;94.20;;;;;;4876344;29;20049;-87
2021/05/04 11:58:05;;;;;;;6.32;1.73;;;13.10;94.00;;;;;;4886909;29;20060;-89
2021/05/04 12:00:38;;;;;;;5.07;1.80;;;13.20;93.70;;;;;;4884102;29;20053;-87
2021/05/04 12:03:16;;;;;;;3.53;0.93;;;13.10;93.90;;;;;;4890198;29;20052;-87
2021/05/04 12:05:46;;;;;;;1.92;0.90;;;13.20;93.00;;;;;;4869369;29;20053;-88
2021/05/04 12:08:14;;;;;;;6.00;1.38;;;13.10;93.20;;;;;;4883010;29;20057;-88
2021/05/04 12:10:49;;;;;;;1.55;1.00;;;13.00;93.00;;;;;;4875638;29;20512;-88
2021/05/04 12:13:40;;;;;;;5.38;1.50;;;12.20;93.60;;;;;;4904012;29;20056;-89
2021/05/04 12:16:08;;;;;;;4.22;1.08;;;12.90;94.40;;;;;;4883770;29;20056;-91
2021/05/04 12:18:41;;;;;;;1.02;0.90;;;12.80;95.30;;;;;;4890467;29;20044;-90
2021/05/04 12:21:10;;;;;;;2.65;1.17;;;12.40;95.70;;;;;;4867104;29;20064;-90
2021/05/04 12:23:42;;;;;;;5.20;1.05;;;13.00;96.50;;;;;;4895497;29;20060;-92
2021/05/04 12:26:19;;;;;;;5.25;1.40;;;13.20;95.30;;;;;;4892451;29;20060;-91
2021/05/04 12:29:37;;;;;;;2.97;1.52;;;13.20;95.10;;;;;;4892296;29;20045;-92
2021/05/04 12:32:14;;;;;;;2.33;1.35;;;13.40;94.80;;;;;;4890625;29;20053;-91
2021/05/04 12:34:45;;;;;;;5.35;1.30;;;13.60;94.70;;;;;;4858920;29;20055;-87
2021/05/04 12:37:17;;;;;;;3.47;1.50;;;13.80;94.20;;;;;;4890153;29;20064;-90
2021/05/04 12:39:46;;;;;;;3.63;1.15;;;13.90;94.30;;;;;;4859808;29;20057;-90
2021/05/04 12:42:25;;;;;;;1.63;1.10;;;14.00;94.50;;;;;;4871433;29;20060;-91
2021/05/04 12:45:09;;;;;;;4.05;1.05;;;14.00;93.60;;;;;;4857835;29;20063;-89
2021/05/04 12:47:52;;;;;;;4.32;1.30;;;13.80;93.10;;;;;;4862024;29;20052;-93
2021/05/04 12:50:56;;;;;;;4.80;1.73;;;13.60;94.70;;;;;;4881391;29;20054;-92
2021/05/04 12:53:27;;;;;;;;;;;13.20;95.90;;;;;;4894338;29;20049;-90
2021/05/04 12:56:06;;;;;;;13.23;2.00;;;12.90;98.90;;;;;;4874688;29;19931;-90
2021/05/04 12:58:33;;;;;;;32.95;4.57;;;12.50;99.90;;;;;;4899133;29;20061;-89
2021/05/04 13:01:11;;;;;;;5.40;1.73;;;12.20;99.90;;;;;;4873042;29;20142;-88
2021/05/04 13:04:13;;;;;;;3.42;1.50;;;12.00;99.90;;;;;;4871341;29;20052;-89
2021/05/04 13:06:56;;;;;;;6.47;1.27;;;12.00;99.90;;;;;;4901965;29;20060;-87
2021/05/04 13:09:49;;;;;;;4.65;1.25;;;12.10;99.90;;;;;;4903331;24;20067;31
2021/05/04 13:15:06;;;;;;;6.00;1.55;;;12.80;99.90;;;;;;4791748;29;20047;-87
2021/05/04 13:18:12;;;;;;;4.30;1.38;;;13.10;99.50;;;;;;4784262;30;20055;-88
2021/05/04 13:20:59;;;;;;;31.58;6.05;;;13.40;97.50;;;;;;4792775;29;20059;-90
2021/05/04 13:29:58;;;;;;;6.10;1.92;;;13.60;92.00;;;;;;4784417;29;20074;-88
2021/05/04 13:32:21;;;;;;;9.77;1.63;;;13.70;91.90;;;;;;4777038;30;20066;-88
2021/05/04 13:37:36;;;;;;;3.15;1.08;;;14.30;90.60;;;;;;4783804;30;20051;-88